• Join FlightAware (Why Join?)
  • Login
  • US Flag 
07:27PM EDT


 

Airport Tracker/Info


-or-


 

Live Flight TrackerFlight Track Log ✈ UAL4583 ✈ 13-Oct-2013 ✈ KCVG - KEWR

Flight Track Log - Related Links

Times and Time Zones

All times are in EDT time to prevent confusion due to time zone crossing. See the UAL4583 flight status page for this flight to view local times or setup timezone preferences in your user account.

Time Position Orientation Groundspeed Altitude Reporting Facility
EDT Latitude Longitude Course Direction KTS MPH feet Rate Location/Type
04:54PM 39.0500 -84.6833 303° West 158 182 1,400  Level Cincinnati TRACON
04:54PM 39.0667 -84.7167 303° West 174 200 2,600 1,920 Climbing Cincinnati TRACON
04:55PM 39.1167 -84.6833 27° Northeast 207 238 4,400 1,800 Climbing Cincinnati TRACON
04:56PM 39.1667 -84.6500 27° Northeast 252 290 6,100 1,980 Climbing Cincinnati TRACON
04:58PM 39.2656 -84.5869 26° Northeast 266 306 9,400 1,740 Climbing Indianapolis Center
04:59PM 39.3389 -84.5403 26° Northeast 283 326 10,600 960 Climbing Indianapolis Center
05:00PM 39.4264 -84.4875 25° Northeast 332 382 11,500 1,200 Climbing Indianapolis Center
05:01PM 39.5125 -84.4194 31° Northeast 365 420 13,100 1,680 Climbing Indianapolis Center
05:02PM 39.5886 -84.2964 51° Northeast 365 420 15,000 1,620 Climbing Indianapolis Center
05:03PM 39.6531 -84.1953 50° Northeast 364 419 16,500 1,380 Climbing Indianapolis Center
05:04PM 39.7186 -84.0911 51° Northeast 372 428 17,900 1,080 Climbing Indianapolis Center
05:05PM 39.7842 -83.9861 51° Northeast 374 430 18,800 960 Climbing Indianapolis Center
05:06PM 39.8517 -83.8778 51° Northeast 381 438 20,000 1,080 Climbing Indianapolis Center
05:07PM 39.9214 -83.7664 51° Northeast 391 450 21,100 1,020 Climbing Indianapolis Center
05:08PM 39.9989 -83.6611 46° Northeast 401 461 22,200 1,080 Climbing Indianapolis Center
05:09PM 40.0850 -83.5658 40° Northeast 400 460 23,400 1,260 Climbing Indianapolis Center
05:10PM 40.1817 -83.4419 44° Northeast 404 465 24,900 1,320 Climbing Indianapolis Center
05:11PM 40.2489 -83.3258 53° Northeast 400 460 26,200 1,260 Climbing Indianapolis Center
05:12PM 40.3158 -83.2111 53° Northeast 397 457 27,600 1,260 Climbing Indianapolis Center
05:13PM 40.3817 -83.0986 52° Northeast 392 451 28,900 1,200 Climbing Indianapolis Center
05:14PM 40.4478 -82.9872 52° Northeast 388 447 30,200 1,260 Climbing Indianapolis Center
05:15PM 40.5192 -82.8631 53° Northeast 385 443 31,600 1,200 Climbing Indianapolis Center
05:16PM 40.5853 -82.7497 52° Northeast 386 444 32,700 900 Climbing Indianapolis Center
05:17PM 40.6531 -82.6336 52° Northeast 394 453 33,500 840 Climbing Indianapolis Center
05:18PM 40.7206 -82.5161 53° Northeast 399 459 34,500 720 Climbing Indianapolis Center
05:19PM 40.7897 -82.3964 53° Northeast 405 466 35,000 240 Climbing Indianapolis Center
05:20PM 40.8736 -82.2494 53° Northeast 426 490 35,000  Level Indianapolis Center
05:21PM 40.9494 -82.1172 53° Northeast 444 511 35,000  Level Indianapolis Center
05:22PM 41.0272 -81.9794 53° Northeast 459 528 35,000  Level Cleveland Center
05:23PM 41.1039 -81.8436 53° Northeast 458 527 35,000  Level Cleveland Center
05:24PM 41.1794 -81.7092 53° Northeast 458 527 35,000  Level Cleveland Center
05:25PM 41.2217 -81.5478 71° East 460 529 35,000  Level Cleveland Center
05:26PM 41.2536 -81.3908 75° East 454 522 35,000  Level Cleveland Center
05:28PM 41.2897 -81.2011 76° East 451 519 35,000  Level Cleveland Center
05:29PM 41.3208 -81.0383 76° East 451 519 35,000  Level Cleveland Center
05:30PM 41.3519 -80.8775 76° East 448 516 35,000  Level Cleveland Center
05:32PM 41.4139 -80.5531 76° East 448 516 35,000  Level Cleveland Center
05:33PM 41.4447 -80.3894 76° East 451 519 35,000  Level Cleveland Center
05:34PM 41.4742 -80.2231 77° East 452 520 35,000  Level Cleveland Center
05:35PM 41.5044 -80.0600 76° East 454 522 35,000  Level Cleveland Center
05:36PM 41.5389 -79.8783 76° East 456 525 35,000  Level Cleveland Center
05:37PM 41.5683 -79.7158 76° East 454 522 35,000  Level Cleveland Center
05:38PM 41.5969 -79.5500 77° East 457 526 35,000  Level Cleveland Center
05:39PM 41.6333 -79.3522 76° East 460 529 35,000  Level Cleveland Center
05:40PM 41.6525 -79.1844 81° East 459 528 35,000  Level Cleveland Center
05:41PM 41.6361 -79.0181 97° East 454 522 35,000  Level Cleveland Center
05:42PM 41.6169 -78.8511 99° East 453 521 35,000  Level Cleveland Center
05:43PM 41.5978 -78.6842 99° East 455 524 35,000  Level Cleveland Center
05:44PM 41.5789 -78.5169 99° East 454 522 35,000 -480 Level Cleveland Center
05:45PM 41.5550 -78.3156 99° East 457 526 34,000 -1,500 Descending Cleveland Center
05:46PM 41.5350 -78.1533 99° East 449 517 32,000 -1,500 Descending Cleveland Center
05:47PM 41.5161 -77.9947 99° East 438 504 31,000 -540 Descending Cleveland Center
05:48PM 41.4944 -77.8344 100° East 439 505 31,000  Level Cleveland Center
05:49PM 41.4711 -77.6653 100° East 447 514 31,000  Level New York Center
05:50PM 41.4453 -77.4992 102° East 442 509 31,000  Level New York Center
05:51PM 41.4192 -77.3361 102° East 442 509 31,000  Level New York Center
05:52PM 41.3969 -77.1708 100° East 447 514 31,000  Level New York Center
05:53PM 41.3722 -77.0053 101° East 452 520 31,000 -600 Level New York Center
05:54PM 41.3475 -76.8397 101° East 452 520 29,800 -1,800 Descending New York Center
05:55PM 41.3136 -76.6850 106° East 452 520 27,500 -2,340 Descending New York Center
05:56PM 41.2692 -76.5292 111° Southeast 452 520 25,200 -2,400 Descending New York Center
05:57PM 41.2267 -76.3739 110° East 452 520 22,800 -2,340 Descending New York Center
05:58PM 41.1881 -76.2217 109° East 441 507 20,600 -2,160 Descending New York Center
05:59PM 41.1528 -76.0783 108° East 426 490 18,500 -1,920 Descending New York Center
06:00PM 41.1167 -75.9542 111° Southeast 409 471 16,800 -1,860 Descending New York Center
06:01PM 41.0753 -75.8025 110° East 397 457 14,800 -1,740 Descending New York Center
06:02PM 41.0372 -75.6675 110° East 392 451 13,400 -900 Descending New York Center
06:03PM 41.0044 -75.5497 110° East 392 451 13,000 -240 Descending New York Center
06:04PM 40.9625 -75.4011 110° East 392 451 13,000 -900 Level New York Center
06:05PM 40.9314 -75.2892 110° East 376 433 11,300 -1,440 Descending New York Center
06:06PM 40.9003 -75.1744 110° East 343 395 10,200 -1,500 Descending New York Center
06:07PM 40.8686 -75.0708 112° Southeast 292 336 8,300 -1,620 Descending New York Center
06:08PM 40.8431 -74.9761 110° East 278 320 7,000 -1,080 Descending New York Center
06:09PM 40.8192 -74.8869 109° East 267 307 6,200 -540 Descending New York Center
06:10PM 40.7950 -74.7950 109° East 257 296 6,000 -120 Descending New York Center
06:11PM 40.7733 -74.7033 107° East 257 296 6,000  Level New York Center
06:12PM 40.7333 -74.6000 117° Southeast 259 298 6,000  Level New York TRACON
06:13PM 40.6667 -74.6000 180° South 260 299 6,000 -240 Level New York TRACON
06:14PM 40.6000 -74.5667 159° South 260 299 5,600 -900 Descending New York TRACON
06:15PM 40.5333 -74.5333 159° South 258 297 4,200 -840 Descending New York TRACON
06:16PM 40.4833 -74.4833 143° Southeast 224 258 4,000 -480 Descending New York TRACON
06:17PM 40.4333 -74.4500 153° Southeast 210 242 3,300 -540 Descending New York TRACON
06:18PM 40.4500 -74.3833 72° East 201 231 3,000 -180 Descending New York TRACON
06:19PM 40.4833 -74.3167 57° Northeast 201 231 3,000  Level New York TRACON
06:20PM 40.5167 -74.2833 37° Northeast 207 238 3,000 -180 Level New York TRACON
06:21PM 40.5667 -74.2500 27° Northeast 177 204 2,700 -720 Descending New York TRACON
06:22PM 40.6167 -74.2167 27° Northeast 170 196 1,600 -900 Descending New York TRACON
06:23PM 40.6500 -74.2000 21° North 133 153 900 -720 Descending New York TRACON